AFR6005 EDDM-LOWI
Flight info
| Callsign | AFR6005 |
|---|---|
| Flight time | 0h 38m |
| Altitude | 14000 |
| Route | TURBU7W TURBU Y107 RTT RTT1B |
| Aircraft | A320/M-SDE3FGHIRWY/LB1 |
Departure
| Time | 2026-05-07 18:34 |
|---|---|
| Airport | Munich Airport (EDDM) |
Arrival
| Time | 2026-05-07 19:13 |
|---|---|
| Airport | Innsbruck Airport (LOWI) |
| Time | Latitude | Longitude | Altitude | Speed | Heading |
|---|---|---|---|---|---|
| 2026-05-07 17:57 | 48.35303 | 11.79311 | 1467 ft | 0 kts | 263° |
| 2026-05-07 18:17 | 48.35305 | 11.79336 | 1457 ft | 2 kts | 263° |
| 2026-05-07 18:17 | 48.35307 | 11.79362 | 1463 ft | 2 kts | 263° |
| 2026-05-07 18:18 | 48.35310 | 11.79387 | 1459 ft | 2 kts | 263° |
| 2026-05-07 18:18 | 48.35312 | 11.79413 | 1459 ft | 2 kts | 263° |
| 2026-05-07 18:18 | 48.35313 | 11.79438 | 1460 ft | 1 kts | 260° |
| 2026-05-07 18:18 | 48.35317 | 11.79455 | 1458 ft | 2 kts | 212° |
| 2026-05-07 18:19 | 48.35332 | 11.79460 | 1459 ft | 1 kts | 143° |
| 2026-05-07 18:19 | 48.35333 | 11.79460 | 1459 ft | 0 kts | 142° |
| 2026-05-07 18:20 | 48.35337 | 11.79456 | 1459 ft | 0 kts | 116° |
| 2026-05-07 18:21 | 48.35338 | 11.79455 | 1459 ft | 0 kts | 112° |
| 2026-05-07 18:21 | 48.35340 | 11.79451 | 1459 ft | 1 kts | 97° |
| 2026-05-07 18:21 | 48.35336 | 11.79462 | 1459 ft | 1 kts | 119° |
| 2026-05-07 18:21 | 48.35331 | 11.79467 | 1459 ft | 1 kts | 135° |
| 2026-05-07 18:22 | 48.35326 | 11.79473 | 1457 ft | 1 kts | 143° |
| 2026-05-07 18:22 | 48.35323 | 11.79476 | 1457 ft | 1 kts | 143° |
| 2026-05-07 18:22 | 48.35315 | 11.79485 | 1457 ft | 1 kts | 143° |
| 2026-05-07 18:22 | 48.35316 | 11.79485 | 1457 ft | 1 kts | 138° |
| 2026-05-07 18:23 | 48.35317 | 11.79485 | 1467 ft | 1 kts | 128° |
| 2026-05-07 18:23 | 48.35311 | 11.79490 | 1460 ft | 1 kts | 143° |
| 2026-05-07 18:23 | 48.35308 | 11.79494 | 1461 ft | 1 kts | 143° |
| 2026-05-07 18:23 | 48.35304 | 11.79499 | 1463 ft | 1 kts | 143° |
| 2026-05-07 18:24 | 48.35300 | 11.79503 | 1465 ft | 1 kts | 143° |
| 2026-05-07 18:24 | 48.35297 | 11.79506 | 1465 ft | 0 kts | 143° |
| 2026-05-07 18:24 | 48.35297 | 11.79505 | 1465 ft | 0 kts | 148° |
| 2026-05-07 18:25 | 48.35296 | 11.79512 | 1464 ft | 6 kts | 118° |
| 2026-05-07 18:25 | 48.35253 | 11.79589 | 1464 ft | 0 kts | 136° |
| 2026-05-07 18:26 | 48.35200 | 11.79625 | 1466 ft | 13 kts | 167° |
| 2026-05-07 18:26 | 48.35114 | 11.79648 | 1466 ft | 12 kts | 171° |
| 2026-05-07 18:26 | 48.35037 | 11.79665 | 1463 ft | 11 kts | 172° |
| 2026-05-07 18:26 | 48.34967 | 11.79677 | 1464 ft | 10 kts | 174° |
| 2026-05-07 18:27 | 48.34905 | 11.79686 | 1467 ft | 8 kts | 174° |
| 2026-05-07 18:27 | 48.34850 | 11.79696 | 1465 ft | 8 kts | 167° |
| 2026-05-07 18:27 | 48.34816 | 11.79744 | 1459 ft | 6 kts | 113° |
| 2026-05-07 18:27 | 48.34810 | 11.79785 | 1457 ft | 6 kts | 95° |
| 2026-05-07 18:28 | 48.34812 | 11.79852 | 1461 ft | 4 kts | 85° |
| 2026-05-07 18:28 | 48.34815 | 11.79890 | 1467 ft | 3 kts | 85° |
| 2026-05-07 18:28 | 48.34817 | 11.79925 | 1467 ft | 5 kts | 84° |
| 2026-05-07 18:28 | 48.34824 | 11.80014 | 1467 ft | 10 kts | 82° |
| 2026-05-07 18:29 | 48.34825 | 11.80116 | 1464 ft | 9 kts | 103° |
| 2026-05-07 18:29 | 48.34796 | 11.80191 | 1463 ft | 8 kts | 130° |
| 2026-05-07 18:29 | 48.34756 | 11.80233 | 1467 ft | 7 kts | 157° |
| 2026-05-07 18:29 | 48.34714 | 11.80245 | 1463 ft | 6 kts | 173° |
| 2026-05-07 18:30 | 48.34678 | 11.80251 | 1461 ft | 5 kts | 173° |
| 2026-05-07 18:30 | 48.34660 | 11.80254 | 1464 ft | 1 kts | 173° |
| 2026-05-07 18:30 | 48.34650 | 11.80256 | 1467 ft | 2 kts | 173° |
| 2026-05-07 18:30 | 48.34634 | 11.80259 | 1457 ft | 2 kts | 173° |
| 2026-05-07 18:31 | 48.34619 | 11.80262 | 1458 ft | 2 kts | 173° |
| 2026-05-07 18:31 | 48.34609 | 11.80264 | 1463 ft | 1 kts | 171° |
| 2026-05-07 18:31 | 48.34605 | 11.80265 | 1464 ft | 0 kts | 171° |
| 2026-05-07 18:33 | 48.34558 | 11.80278 | 1459 ft | 19 kts | 169° |
| 2026-05-07 18:33 | 48.34480 | 11.80253 | 1463 ft | 10 kts | 221° |
| 2026-05-07 18:33 | 48.34457 | 11.80169 | 1469 ft | 9 kts | 258° |
| 2026-05-07 18:34 | 48.34437 | 11.79932 | 1464 ft | 55 kts | 264° |
| 2026-05-07 18:34 | 48.34361 | 11.78962 | 1465 ft | 127 kts | 263° |
| 2026-05-07 18:34 | 48.34244 | 11.77362 | 1511 ft | 175 kts | 263° |
| 2026-05-07 18:34 | 48.34128 | 11.75561 | 2249 ft | 175 kts | 270° |
| 2026-05-07 18:35 | 48.33981 | 11.73765 | 3129 ft | 174 kts | 252° |
| 2026-05-07 18:35 | 48.33367 | 11.72227 | 3970 ft | 170 kts | 227° |
| 2026-05-07 18:35 | 48.32432 | 11.71219 | 4829 ft | 163 kts | 205° |
| 2026-05-07 18:35 | 48.31308 | 11.70798 | 5297 ft | 183 kts | 185° |
| 2026-05-07 18:36 | 48.29881 | 11.70769 | 5295 ft | 228 kts | 179° |
| 2026-05-07 18:36 | 48.28209 | 11.71383 | 5301 ft | 264 kts | 155° |
| 2026-05-07 18:36 | 48.26640 | 11.72903 | 5301 ft | 272 kts | 146° |
| 2026-05-07 18:36 | 48.25080 | 11.74525 | 5304 ft | 273 kts | 147° |
| 2026-05-07 18:37 | 48.23506 | 11.76131 | 5305 ft | 274 kts | 147° |
| 2026-05-07 18:37 | 48.21932 | 11.77724 | 5585 ft | 273 kts | 147° |
| 2026-05-07 18:37 | 48.20349 | 11.79321 | 6024 ft | 277 kts | 148° |
| 2026-05-07 18:37 | 48.18738 | 11.80947 | 6463 ft | 279 kts | 148° |
| 2026-05-07 18:38 | 48.16995 | 11.82193 | 6876 ft | 279 kts | 164° |
| 2026-05-07 18:38 | 48.15146 | 11.83113 | 7069 ft | 280 kts | 164° |
| 2026-05-07 18:38 | 48.13296 | 11.84030 | 7289 ft | 280 kts | 165° |
| 2026-05-07 18:38 | 48.11439 | 11.84950 | 7643 ft | 282 kts | 165° |
| 2026-05-07 18:39 | 48.09575 | 11.85877 | 8000 ft | 283 kts | 165° |
| 2026-05-07 18:39 | 48.07699 | 11.86809 | 8360 ft | 285 kts | 165° |
| 2026-05-07 18:39 | 48.05809 | 11.87744 | 8725 ft | 286 kts | 165° |
| 2026-05-07 18:39 | 48.03945 | 11.88668 | 9086 ft | 288 kts | 165° |
| 2026-05-07 18:40 | 48.02039 | 11.89613 | 9442 ft | 289 kts | 165° |
| 2026-05-07 18:40 | 48.00126 | 11.90564 | 9817 ft | 291 kts | 165° |
| 2026-05-07 18:40 | 47.98198 | 11.91522 | 10168 ft | 293 kts | 165° |
| 2026-05-07 18:40 | 47.96258 | 11.92481 | 10510 ft | 294 kts | 165° |
| 2026-05-07 18:41 | 47.94313 | 11.93440 | 10869 ft | 295 kts | 165° |
| 2026-05-07 18:41 | 47.92361 | 11.94399 | 11408 ft | 297 kts | 166° |
| 2026-05-07 18:41 | 47.91028 | 11.94831 | 11772 ft | 295 kts | 179° |
| 2026-05-07 18:41 | 47.88290 | 11.94842 | 12539 ft | 296 kts | 184° |
| 2026-05-07 18:42 | 47.86923 | 11.94814 | 12924 ft | 297 kts | 184° |
| 2026-05-07 18:42 | 47.84848 | 11.94766 | 13517 ft | 299 kts | 184° |
| 2026-05-07 18:42 | 47.82750 | 11.94715 | 13954 ft | 303 kts | 184° |
| 2026-05-07 18:42 | 47.80639 | 11.94665 | 14027 ft | 303 kts | 184° |
| 2026-05-07 18:43 | 47.78529 | 11.94621 | 14047 ft | 304 kts | 184° |
| 2026-05-07 18:43 | 47.76421 | 11.94583 | 14055 ft | 304 kts | 184° |
| 2026-05-07 18:43 | 47.74306 | 11.94546 | 14063 ft | 304 kts | 184° |
| 2026-05-07 18:43 | 47.72183 | 11.94512 | 14057 ft | 304 kts | 183° |
| 2026-05-07 18:44 | 47.70069 | 11.94480 | 14065 ft | 304 kts | 183° |
| 2026-05-07 18:44 | 47.67960 | 11.94446 | 14066 ft | 303 kts | 183° |
| 2026-05-07 18:44 | 47.65848 | 11.94410 | 14063 ft | 304 kts | 184° |
| 2026-05-07 18:44 | 47.63740 | 11.94368 | 14065 ft | 304 kts | 184° |
| 2026-05-07 18:45 | 47.61623 | 11.94327 | 14054 ft | 304 kts | 183° |
| 2026-05-07 18:45 | 47.59510 | 11.94290 | 14045 ft | 305 kts | 183° |
| 2026-05-07 18:45 | 47.57383 | 11.94254 | 14060 ft | 305 kts | 183° |
| 2026-05-07 18:45 | 47.55261 | 11.94220 | 14059 ft | 306 kts | 183° |
| 2026-05-07 18:46 | 47.53131 | 11.94186 | 14052 ft | 306 kts | 183° |
| 2026-05-07 18:46 | 47.51006 | 11.94152 | 14061 ft | 306 kts | 183° |
| 2026-05-07 18:46 | 47.48880 | 11.94116 | 14059 ft | 306 kts | 183° |
| 2026-05-07 18:46 | 47.46756 | 11.94079 | 14060 ft | 306 kts | 183° |
| 2026-05-07 18:47 | 47.44652 | 11.93774 | 14007 ft | 303 kts | 200° |
| 2026-05-07 18:47 | 47.42921 | 11.92165 | 13765 ft | 292 kts | 231° |
| 2026-05-07 18:47 | 47.42016 | 11.89597 | 13498 ft | 285 kts | 255° |
| 2026-05-07 18:47 | 47.41682 | 11.86746 | 13217 ft | 281 kts | 265° |
| 2026-05-07 18:48 | 47.41564 | 11.83901 | 13062 ft | 273 kts | 267° |
| 2026-05-07 18:48 | 47.41476 | 11.81144 | 13054 ft | 266 kts | 266° |
| 2026-05-07 18:48 | 47.41346 | 11.78430 | 13057 ft | 264 kts | 265° |
| 2026-05-07 18:48 | 47.41168 | 11.75763 | 13058 ft | 260 kts | 264° |
| 2026-05-07 18:49 | 47.40952 | 11.73117 | 13049 ft | 259 kts | 263° |
| 2026-05-07 18:49 | 47.40707 | 11.70469 | 13054 ft | 260 kts | 262° |
| 2026-05-07 18:49 | 47.40449 | 11.67840 | 13053 ft | 260 kts | 261° |
| 2026-05-07 18:49 | 47.40182 | 11.65199 | 13053 ft | 259 kts | 261° |
| 2026-05-07 18:50 | 47.39911 | 11.62563 | 13051 ft | 260 kts | 261° |
| 2026-05-07 18:50 | 47.39639 | 11.59932 | 13055 ft | 260 kts | 261° |
| 2026-05-07 18:50 | 47.39365 | 11.57301 | 13053 ft | 259 kts | 261° |
| 2026-05-07 18:50 | 47.39092 | 11.54661 | 13054 ft | 260 kts | 261° |
| 2026-05-07 18:51 | 47.38820 | 11.52036 | 13043 ft | 259 kts | 261° |
| 2026-05-07 18:51 | 47.38545 | 11.49391 | 13053 ft | 260 kts | 261° |
| 2026-05-07 18:51 | 47.38270 | 11.46767 | 13055 ft | 260 kts | 261° |
| 2026-05-07 18:51 | 47.37995 | 11.44124 | 13052 ft | 260 kts | 261° |
| 2026-05-07 18:52 | 47.37723 | 11.41487 | 13054 ft | 260 kts | 261° |
| 2026-05-07 18:52 | 47.37450 | 11.38858 | 13055 ft | 260 kts | 261° |
| 2026-05-07 18:52 | 47.37174 | 11.36222 | 13055 ft | 260 kts | 261° |
| 2026-05-07 18:52 | 47.36900 | 11.33625 | 13055 ft | 259 kts | 261° |
| 2026-05-07 18:53 | 47.36622 | 11.31002 | 13057 ft | 260 kts | 261° |
| 2026-05-07 18:53 | 47.36341 | 11.28375 | 13055 ft | 259 kts | 261° |
| 2026-05-07 18:53 | 47.36063 | 11.25754 | 13057 ft | 258 kts | 261° |
| 2026-05-07 18:53 | 47.35784 | 11.23131 | 13052 ft | 258 kts | 261° |
| 2026-05-07 18:54 | 47.35507 | 11.20528 | 13048 ft | 257 kts | 261° |
| 2026-05-07 18:54 | 47.35231 | 11.17923 | 13048 ft | 257 kts | 261° |
| 2026-05-07 18:54 | 47.34955 | 11.15317 | 13048 ft | 257 kts | 261° |
| 2026-05-07 18:54 | 47.34678 | 11.12708 | 13048 ft | 257 kts | 261° |
| 2026-05-07 18:55 | 47.34399 | 11.10105 | 13049 ft | 257 kts | 261° |
| 2026-05-07 18:55 | 47.34120 | 11.07501 | 13052 ft | 256 kts | 261° |
| 2026-05-07 18:55 | 47.33844 | 11.04959 | 13048 ft | 245 kts | 261° |
| 2026-05-07 18:55 | 47.33573 | 11.02484 | 13051 ft | 249 kts | 261° |
| 2026-05-07 18:56 | 47.33295 | 10.99942 | 13054 ft | 252 kts | 260° |
| 2026-05-07 18:56 | 47.33014 | 10.97386 | 13053 ft | 253 kts | 260° |
| 2026-05-07 18:56 | 47.32733 | 10.94832 | 13053 ft | 253 kts | 260° |
| 2026-05-07 18:56 | 47.32452 | 10.92259 | 13055 ft | 253 kts | 261° |
| 2026-05-07 18:57 | 47.32174 | 10.89691 | 13059 ft | 264 kts | 261° |
| 2026-05-07 18:57 | 47.31875 | 10.86929 | 13055 ft | 282 kts | 261° |
| 2026-05-07 18:57 | 47.31554 | 10.84009 | 13053 ft | 286 kts | 260° |
| 2026-05-07 18:57 | 47.31239 | 10.81152 | 13055 ft | 287 kts | 260° |
| 2026-05-07 18:58 | 47.30920 | 10.78251 | 13053 ft | 287 kts | 260° |
| 2026-05-07 18:58 | 47.30601 | 10.75345 | 13057 ft | 288 kts | 260° |
| 2026-05-07 18:58 | 47.30280 | 10.72430 | 13052 ft | 288 kts | 260° |
| 2026-05-07 18:58 | 47.29957 | 10.69515 | 13056 ft | 289 kts | 260° |
| 2026-05-07 18:59 | 47.29631 | 10.66594 | 13060 ft | 290 kts | 260° |
| 2026-05-07 18:59 | 47.29300 | 10.63665 | 13062 ft | 290 kts | 260° |
| 2026-05-07 18:59 | 47.28967 | 10.60734 | 13062 ft | 291 kts | 260° |
| 2026-05-07 18:59 | 47.28638 | 10.57813 | 13059 ft | 285 kts | 260° |
| 2026-05-07 19:00 | 47.28107 | 10.55082 | 13062 ft | 270 kts | 239° |
| 2026-05-07 19:00 | 47.26777 | 10.53284 | 13062 ft | 260 kts | 204° |
| 2026-05-07 19:00 | 47.25028 | 10.53000 | 13060 ft | 252 kts | 168° |
| 2026-05-07 19:00 | 47.23585 | 10.54281 | 13060 ft | 242 kts | 132° |
| 2026-05-07 19:01 | 47.22641 | 10.56268 | 13061 ft | 232 kts | 124° |
| 2026-05-07 19:01 | 47.21781 | 10.58242 | 13070 ft | 228 kts | 126° |
| 2026-05-07 19:01 | 47.20901 | 10.60180 | 13067 ft | 227 kts | 126° |
| 2026-05-07 19:01 | 47.20030 | 10.62106 | 13062 ft | 226 kts | 126° |
| 2026-05-07 19:02 | 47.19162 | 10.64039 | 13066 ft | 227 kts | 122° |
| 2026-05-07 19:02 | 47.18605 | 10.66207 | 13063 ft | 229 kts | 99° |
| 2026-05-07 19:02 | 47.18660 | 10.68538 | 13064 ft | 229 kts | 77° |
| 2026-05-07 19:02 | 47.19006 | 10.70857 | 12712 ft | 239 kts | 79° |
| 2026-05-07 19:03 | 47.19299 | 10.73355 | 12023 ft | 255 kts | 81° |
| 2026-05-07 19:03 | 47.19576 | 10.75949 | 11331 ft | 260 kts | 81° |
| 2026-05-07 19:03 | 47.19853 | 10.78573 | 10645 ft | 257 kts | 81° |
| 2026-05-07 19:03 | 47.20293 | 10.81053 | 9971 ft | 244 kts | 66° |
| 2026-05-07 19:04 | 47.21128 | 10.83115 | 9255 ft | 232 kts | 50° |
| 2026-05-07 19:04 | 47.22225 | 10.84780 | 8548 ft | 223 kts | 40° |
| 2026-05-07 19:04 | 47.23407 | 10.86216 | 7837 ft | 216 kts | 40° |
| 2026-05-07 19:04 | 47.24496 | 10.87692 | 7125 ft | 210 kts | 47° |
| 2026-05-07 19:05 | 47.25462 | 10.89262 | 6505 ft | 204 kts | 52° |
| 2026-05-07 19:05 | 47.26228 | 10.90987 | 5868 ft | 202 kts | 64° |
| 2026-05-07 19:05 | 47.26800 | 10.92871 | 5250 ft | 197 kts | 66° |
| 2026-05-07 19:05 | 47.27317 | 10.94668 | 4837 ft | 185 kts | 67° |
| 2026-05-07 19:06 | 47.27787 | 10.96353 | 4457 ft | 170 kts | 69° |
| 2026-05-07 19:06 | 47.28572 | 10.99426 | 4171 ft | 156 kts | 72° |
| 2026-05-07 19:06 | 47.28885 | 11.00949 | 4119 ft | 149 kts | 75° |
| 2026-05-07 19:07 | 47.29142 | 11.02390 | 4120 ft | 142 kts | 75° |
| 2026-05-07 19:07 | 47.29443 | 11.03757 | 4252 ft | 138 kts | 71° |
| 2026-05-07 19:07 | 47.29720 | 11.05093 | 4372 ft | 136 kts | 74° |
| 2026-05-07 19:07 | 47.29938 | 11.06448 | 4430 ft | 136 kts | 82° |
| 2026-05-07 19:08 | 47.30029 | 11.07835 | 4494 ft | 137 kts | 88° |
| 2026-05-07 19:08 | 47.29979 | 11.09228 | 4533 ft | 136 kts | 99° |
| 2026-05-07 19:08 | 47.29705 | 11.10575 | 4547 ft | 136 kts | 112° |
| 2026-05-07 19:08 | 47.29229 | 11.11770 | 4578 ft | 135 kts | 121° |
| 2026-05-07 19:09 | 47.28750 | 11.12953 | 4783 ft | 134 kts | 116° |
| 2026-05-07 19:09 | 47.28285 | 11.14164 | 5095 ft | 137 kts | 118° |
| 2026-05-07 19:09 | 47.27852 | 11.15439 | 5232 ft | 140 kts | 111° |
| 2026-05-07 19:09 | 47.27475 | 11.16752 | 5261 ft | 139 kts | 115° |
| 2026-05-07 19:10 | 47.27066 | 11.18031 | 5211 ft | 138 kts | 113° |
| 2026-05-07 19:10 | 47.26624 | 11.19292 | 5040 ft | 139 kts | 117° |
| 2026-05-07 19:10 | 47.26210 | 11.20572 | 4841 ft | 138 kts | 111° |
| 2026-05-07 19:10 | 47.25849 | 11.21872 | 4500 ft | 137 kts | 109° |
| 2026-05-07 19:11 | 47.25527 | 11.23185 | 4184 ft | 136 kts | 107° |
| 2026-05-07 19:11 | 47.25243 | 11.24508 | 3948 ft | 135 kts | 103° |
| 2026-05-07 19:11 | 47.25133 | 11.25924 | 3517 ft | 145 kts | 88° |
| 2026-05-07 19:11 | 47.25243 | 11.27378 | 3224 ft | 141 kts | 81° |
| 2026-05-07 19:12 | 47.25383 | 11.28799 | 2895 ft | 139 kts | 81° |
| 2026-05-07 19:12 | 47.25575 | 11.30195 | 2542 ft | 139 kts | 77° |
| 2026-05-07 19:12 | 47.25720 | 11.31603 | 2219 ft | 138 kts | 84° |
| 2026-05-07 19:12 | 47.25870 | 11.32952 | 1994 ft | 136 kts | 79° |
| 2026-05-07 19:13 | 47.26001 | 11.34200 | 1900 ft | 103 kts | 78° |
| 2026-05-07 19:13 | 47.26053 | 11.34614 | 1894 ft | 0 kts | 83° |